Anshun, China
Current Conditions -  °F | °C
As of 9:00 PM on Saturday 20 Dec 2014 (Local Time) from ZUGY Reporting Station
Broken Clouds Broken Clouds  
Wind Chill: 42°   Ceiling: 4000
Heat Index: 45°   Visibility: 4mi
Dew Point: 39°   Wind: 4mph
Humidity: 81%   Direction: 360°N
Pressure: 30.09"   Gusts: NA
Location:  26.25°N, 105.93°E
Report Text: ZUGY 201300Z 36002MPS 7000 FEW023 BKN040 07/04 Q1019 NOSIG
Loading
Personal Weather Stations






























Interactive Weather Map New forecast layout! Learn more

10-Day Weather Forecast

Advertisements
Track Severe Weather on mobile